Time;durP1;ratioP1;P1;durP2;ratioP2;P2;SDS_P1;SDS_P2;PMS_P1;PMS_P2;Temp;Humidity;BMP_temperature;BMP_pressure;BME280_temperature;BME280_humidity;BME280_pressure;Samples;Min_cycle;Max_cycle;Signal;HPM_P1;HPM_P2
2021/06/11 00:00:02;;;;;;;23.80;19.97;;;;;;;;;;2104607;28;20324;-77
2021/06/11 00:01:12;;;;;;;22.27;20.02;;;;;;;13.94;nan;99020.78;2104876;28;20225;-77
2021/06/11 00:02:14;;;;;;;23.67;20.90;;;;;;;13.95;nan;99049.97;2105647;28;20229;-77
2021/06/11 00:03:15;;;;;;;21.15;18.83;;;;;;;13.99;nan;99056.28;2105474;28;20776;-77
2021/06/11 00:04:16;;;;;;;25.65;20.13;;;;;;;13.96;nan;99115.91;2105717;28;20224;-77
2021/06/11 00:05:17;;;;;;;25.52;21.27;;;;;;;13.95;nan;99055.34;2105898;28;20728;-77
2021/06/11 00:06:20;;;;;;;29.17;21.80;;;;;;;13.97;nan;99057.69;2105597;28;20684;-77
2021/06/11 00:07:20;;;;;;;22.52;20.08;;;;;;;13.98;nan;99060.03;2104976;28;20221;-77
2021/06/11 00:08:22;;;;;;;28.77;20.07;;;;;;;14.02;nan;99060.22;2105052;28;20312;-76
2021/06/11 00:09:22;;;;;;;23.17;20.42;;;;;;;14.01;nan;99059.44;2105260;28;20221;-76
2021/06/11 00:10:24;;;;;;;23.00;20.53;;;;;;;14.02;nan;99054.84;2104317;28;20690;-76
2021/06/11 00:11:25;;;;;;;24.40;20.73;;;;;;;14.06;nan;99056.56;2104737;28;20225;-76
2021/06/11 00:12:26;;;;;;;24.57;21.07;;;;;;;14.08;nan;99059.75;2104348;28;20675;-77
2021/06/11 00:13:27;;;;;;;28.90;20.88;;;;;;;14.06;nan;99051.19;2105025;28;20733;-76
2021/06/11 00:14:28;;;;;;;28.63;20.60;;;;;;;14.04;nan;99042.69;2097868;28;20717;-77
2021/06/11 00:15:29;;;;;;;26.38;20.38;;;;;;;14.05;nan;99064.94;2096612;28;20680;-77
2021/06/11 00:16:30;;;;;;;22.73;20.30;;;;;;;14.03;nan;99018.88;2104387;28;20684;-77
2021/06/11 00:17:31;;;;;;;22.75;20.38;;;;;;;;;;2105496;28;20304;-76
2021/06/11 00:18:32;;;;;;;28.77;21.67;;;;;;;14.05;nan;99054.22;2105532;28;20237;-77
2021/06/11 00:19:32;;;;;;;23.17;20.65;;;;;;;;;;2105614;28;20224;-77
2021/06/11 00:20:34;;;;;;;28.70;20.93;;;;;;;14.04;nan;99058.00;2105573;28;20237;-77
2021/06/11 00:21:36;;;;;;;25.63;21.88;;;;;;;14.06;nan;99061.16;2105686;28;20663;-77
2021/06/11 00:22:38;;;;;;;24.55;21.17;;;;;;;14.04;nan;99074.09;2105621;28;20663;-77
2021/06/11 00:23:39;;;;;;;24.88;21.15;;;;;;;13.99;nan;99083.13;2105148;28;20221;-76
2021/06/11 00:24:40;;;;;;;25.07;20.47;;;;;;;14.06;nan;99045.84;2105361;28;20217;-77
2021/06/11 00:25:41;;;;;;;23.77;20.33;;;;;;;14.09;nan;99060.53;2104878;28;20225;-77
2021/06/11 00:26:42;;;;;;;27.57;22.10;;;;;;;;;;2097660;28;20317;-77
2021/06/11 00:27:43;;;;;;;27.73;21.50;;;;;;;14.05;nan;99055.00;2096508;28;20327;-77
2021/06/11 00:28:44;;;;;;;23.58;20.88;;;;;;;14.02;nan;99028.81;2103627;28;20464;-77
2021/06/11 00:29:45;;;;;;;22.75;20.50;;;;;;;14.00;nan;99116.88;2104735;28;20356;-78
2021/06/11 00:30:46;;;;;;;26.70;21.33;;;;;;;;;;2103636;28;20239;-78
2021/06/11 00:31:47;;;;;;;23.42;20.75;;;;;;;13.99;nan;99040.19;2104754;28;20221;-78
2021/06/11 00:32:48;;;;;;;25.17;20.80;;;;;;;14.03;nan;99046.47;2104662;28;20228;-77
2021/06/11 00:33:49;;;;;;;22.48;20.15;;;;;;;14.02;nan;99054.84;2104832;28;20221;-77
2021/06/11 00:34:50;;;;;;;25.57;21.37;;;;;;;14.05;nan;99048.84;2104394;28;20259;-77
2021/06/11 00:35:51;;;;;;;29.40;20.58;;;;;;;14.06;nan;99051.19;2095847;28;20251;-77
2021/06/11 00:36:54;;;;;;;22.23;19.88;;;;;;;;;;2095921;28;20317;-77
2021/06/11 00:37:55;;;;;;;23.95;20.52;;;;;;;13.99;nan;99039.41;2096432;28;20608;-77
2021/06/11 00:38:56;;;;;;;25.53;21.53;;;;;;;13.96;nan;99051.53;2096101;28;20295;-76
2021/06/11 00:39:58;;;;;;;22.65;20.27;;;;;;;13.95;nan;99055.34;2104596;28;20290;-77
2021/06/11 00:40:59;;;;;;;23.45;20.90;;;;;;;13.96;nan;99040.03;2102494;28;20349;-77
2021/06/11 00:42:00;;;;;;;24.13;20.88;;;;;;;13.97;nan;99112.13;2104715;28;20217;-77
2021/06/11 00:43:01;;;;;;;24.05;21.45;;;;;;;13.89;nan;99040.50;2105336;28;20291;-77
2021/06/11 00:44:02;;;;;;;23.38;20.65;;;;;;;13.91;nan;99042.88;2105500;28;20213;-77
2021/06/11 00:45:05;;;;;;;26.35;21.33;;;;;;;13.84;nan;99044.16;2105425;28;20714;-78
2021/06/11 00:46:06;;;;;;;28.92;21.02;;;;;;;13.82;nan;99030.28;2105362;28;20220;-77
2021/06/11 00:47:07;;;;;;;23.80;20.73;;;;;;;13.78;nan;99017.81;2105585;28;20308;-77
2021/06/11 00:48:09;;;;;;;25.02;22.02;;;;;;;13.77;nan;99037.69;2105098;28;20228;-77
2021/06/11 00:49:10;;;;;;;23.90;21.35;;;;;;;13.77;nan;99043.84;2105249;28;20671;-77
2021/06/11 00:50:13;;;;;;;25.02;21.70;;;;;;;13.76;nan;99041.47;2104485;28;20794;-77
2021/06/11 00:51:14;;;;;;;24.08;21.65;;;;;;;13.77;nan;99049.19;2096483;28;20225;-77
2021/06/11 00:52:16;;;;;;;25.52;21.42;;;;;;;13.74;nan;99032.97;2104651;28;20217;-77
2021/06/11 00:53:18;;;;;;;23.73;21.20;;;;;;;13.74;nan;99049.84;2105389;28;20772;-77
2021/06/11 00:54:19;;;;;;;23.50;20.88;;;;;;;13.77;nan;99053.78;2105360;28;20217;-77
2021/06/11 00:55:20;;;;;;;25.15;21.85;;;;;;;13.69;nan;99030.44;2104422;28;20222;-77
2021/06/11 00:56:21;;;;;;;26.02;22.00;;;;;;;;;;2104659;28;20718;-77
2021/06/11 00:57:23;;;;;;;23.23;20.93;;;;;;;13.67;nan;99048.75;2105303;28;20630;-77
2021/06/11 00:58:23;;;;;;;23.75;21.15;;;;;;;13.63;nan;99037.84;2104037;28;20229;-77
2021/06/11 00:59:25;;;;;;;22.60;19.93;;;;;;;13.61;nan;99039.28;2104390;28;20694;-78
2021/06/11 01:00:26;;;;;;;25.70;20.90;;;;;;;13.60;nan;99096.69;2105267;28;20444;-76
2021/06/11 01:01:27;;;;;;;30.17;21.47;;;;;;;13.68;nan;99044.94;2104408;28;20217;-77
2021/06/11 01:02:28;;;;;;;26.67;21.13;;;;;;;13.64;nan;99049.34;2104640;28;20754;-77
2021/06/11 01:03:30;;;;;;;26.20;21.87;;;;;;;13.58;nan;99020.03;2105090;28;20634;-77
2021/06/11 01:04:31;;;;;;;25.95;20.70;;;;;;;13.63;nan;99037.84;2097082;28;20280;-77
2021/06/11 01:05:32;;;;;;;23.67;21.30;;;;;;;13.63;nan;99016.41;2096200;28;20312;-77
2021/06/11 01:06:33;;;;;;;24.40;21.83;;;;;;;13.58;nan;99041.47;2104585;28;20605;-77
2021/06/11 01:07:36;;;;;;;23.67;21.17;;;;;;;13.54;nan;99040.53;2105126;28;20221;-77
2021/06/11 01:08:38;;;;;;;23.85;21.23;;;;;;;13.53;nan;99038.94;2105249;28;20674;-77
2021/06/11 01:09:40;;;;;;;24.63;22.10;;;;;;;13.52;nan;99048.09;2104840;28;20222;-76
2021/06/11 01:10:41;;;;;;;23.90;21.40;;;;;;;13.48;nan;99095.41;2105438;28;20252;-77
2021/06/11 01:11:43;;;;;;;25.73;20.58;;;;;;;13.48;nan;99041.81;2104088;28;20217;-77
2021/06/11 01:12:46;;;;;;;23.63;21.17;;;;;;;13.43;nan;99076.00;2096308;28;20237;-77
2021/06/11 01:13:46;;;;;;;23.75;21.45;;;;;;;;;;2095930;28;20245;-77
2021/06/11 01:14:48;;;;;;;25.20;21.63;;;;;;;13.38;nan;99031.41;2104547;28;20223;-77
2021/06/11 01:15:50;;;;;;;26.33;21.35;;;;;;;13.39;nan;99048.28;2105270;28;20691;-78
2021/06/11 01:16:51;;;;;;;27.45;21.85;;;;;;;13.40;nan;99034.56;2104346;28;20730;-77
2021/06/11 01:17:53;;;;;;;23.52;21.02;;;;;;;13.34;nan;99019.72;2104503;28;20228;-77
2021/06/11 01:18:54;;;;;;;25.00;20.38;;;;;;;13.33;nan;99039.59;2104727;28;20229;-77
2021/06/11 01:19:55;;;;;;;26.33;21.05;;;;;;;13.31;nan;99030.28;2103960;28;20281;-77
2021/06/11 01:20:56;;;;;;;25.37;21.03;;;;;;;13.27;nan;99030.91;2104414;28;20229;-78
2021/06/11 01:22:00;;;;;;;26.98;21.90;;;;;;;13.29;nan;99033.25;2104366;28;22428;-78
2021/06/11 01:23:46;;;;;;;24.50;21.23;;;;;;;13.27;nan;99036.25;2104465;28;20265;-77
2021/06/11 01:24:59;;;;;;;23.83;21.38;;;;;;;22.40;100.00;57729.84;2103597;28;20620;-77
2021/06/11 01:26:21;;;;;;;26.60;21.65;;;;;;;13.19;nan;99023.63;2104845;28;20248;-77
2021/06/11 01:27:22;;;;;;;23.90;21.27;;;;;;;13.20;nan;99019.84;2104889;28;20370;-77
2021/06/11 01:28:23;;;;;;;24.13;21.53;;;;;;;13.18;nan;99032.75;2101918;28;20333;-77
2021/06/11 01:29:26;;;;;;;26.80;21.52;;;;;;;13.15;nan;99113.75;2104372;28;20221;-77
2021/06/11 01:30:27;;;;;;;24.58;21.20;;;;;;;13.14;nan;99031.81;2105250;28;20225;-77
2021/06/11 01:31:29;;;;;;;26.93;21.40;;;;;;;13.17;nan;99142.91;2105282;28;20308;-77
2021/06/11 01:32:30;;;;;;;24.85;21.60;;;;;;;;;;2104313;28;20221;-77
2021/06/11 01:33:33;;;;;;;24.50;21.27;;;;;;;;;;2104451;28;20232;-77
2021/06/11 01:34:34;;;;;;;23.38;20.98;;;;;;;13.10;nan;99030.06;2105221;28;20221;-77
2021/06/11 01:35:40;;;;;;;26.17;21.95;;;;;;;13.13;nan;99034.81;2105033;28;20294;-77
2021/06/11 01:36:46;;;;;;;23.95;21.30;;;;;;;13.12;nan;99038.56;2103915;28;20220;-77
2021/06/11 01:37:48;;;;;;;26.60;21.95;;;;;;;13.09;nan;99001.69;2106148;28;20236;-78
2021/06/11 01:38:50;;;;;;;24.60;21.10;;;;;;;13.13;nan;99029.47;2106913;28;20253;-77
2021/06/11 01:39:54;;;;;;;25.27;21.60;;;;;;;13.13;nan;99109.81;2099603;28;20229;-78
2021/06/11 01:40:55;;;;;;;22.65;20.48;;;;;;;13.08;nan;99101.91;2097802;28;20255;-77
2021/06/11 01:41:58;;;;;;;27.40;22.00;;;;;;;13.04;nan;99031.34;2106893;28;20687;-77
2021/06/11 01:43:01;;;;;;;24.92;21.65;;;;;;;13.01;nan;99033.50;2106669;28;20225;-78
2021/06/11 01:44:03;;;;;;;24.35;21.30;;;;;;;12.93;nan;99090.53;2097891;28;20595;-78
2021/06/11 01:45:08;;;;;;;24.75;20.88;;;;;;;12.98;nan;99039.50;2097899;28;20723;-77
2021/06/11 01:46:11;;;;;;;27.20;20.92;;;;;;;;;;2104629;28;20221;-77
2021/06/11 01:47:12;;;;;;;23.67;21.23;;;;;;;;;;2105897;28;20688;-78
2021/06/11 01:48:16;;;;;;;28.60;22.02;;;;;;;12.91;nan;99087.38;2106223;28;20572;-78
2021/06/11 01:49:18;;;;;;;23.17;20.77;;;;;;;12.94;nan;99092.13;2106656;28;20270;-78
2021/06/11 01:50:22;;;;;;;26.05;22.00;;;;;;;12.94;nan;99011.78;2106769;28;20217;-77
2021/06/11 01:51:22;;;;;;;23.90;21.23;;;;;;;12.92;nan;99035.38;2106229;28;20224;-76
2021/06/11 01:52:26;;;;;;;28.80;22.50;;;;;;;12.90;nan;99047.50;2106860;28;20232;-76
2021/06/11 01:53:27;;;;;;;28.75;22.55;;;;;;;12.85;nan;99034.25;2105855;28;20637;-77
2021/06/11 01:54:29;;;;;;;24.55;22.17;;;;;;;12.85;nan;99051.13;2106061;28;20286;-78
2021/06/11 01:55:30;;;;;;;24.75;22.08;;;;;;;;;;2106820;28;20568;-78
2021/06/11 01:56:31;;;;;;;27.03;21.60;;;;;;;12.85;nan;99029.69;2105513;28;20221;-77
2021/06/11 01:57:34;;;;;;;24.92;22.10;;;;;;;;;;2105999;28;20714;-77
2021/06/11 01:58:35;;;;;;;24.75;22.15;;;;;;;12.89;nan;99036.03;2105975;28;20598;-77
2021/06/11 01:59:37;;;;;;;31.83;21.20;;;;;;;12.87;nan;99075.72;2099570;28;20234;-78
2021/06/11 02:00:38;;;;;;;24.63;21.92;;;;;;;12.86;nan;99030.50;2097338;28;20683;-77
2021/06/11 02:01:40;;;;;;;29.42;22.45;;;;;;;12.89;nan;99024.53;2106748;28;20259;-77
2021/06/11 02:02:42;;;;;;;23.73;21.10;;;;;;;12.88;nan;99034.44;2106693;28;20221;-78
2021/06/11 02:03:45;;;;;;;25.20;22.50;;;;;;;12.90;nan;99042.16;2098197;28;20582;-77
2021/06/11 02:04:46;;;;;;;23.77;21.38;;;;;;;;;;2097564;28;20591;-77
2021/06/11 02:05:47;;;;;;;29.58;22.48;;;;;;;12.88;nan;99028.31;2105950;28;20293;-77
2021/06/11 02:06:49;;;;;;;25.80;21.40;;;;;;;12.88;nan;99033.66;2106686;28;20286;-77
2021/06/11 02:07:50;;;;;;;29.40;21.50;;;;;;;12.89;nan;99035.22;2105534;28;20225;-77
2021/06/11 02:08:53;;;;;;;24.20;21.80;;;;;;;12.82;nan;99096.47;2102039;28;20293;-77
2021/06/11 02:09:54;;;;;;;26.88;21.35;;;;;;;12.93;nan;99036.16;2104417;28;20221;-77
2021/06/11 02:10:56;;;;;;;29.42;22.45;;;;;;;12.95;nan;99034.78;2105615;28;20225;-77
2021/06/11 02:11:57;;;;;;;27.50;22.02;;;;;;;12.92;nan;99040.75;2105606;28;20217;-77
2021/06/11 02:13:00;;;;;;;24.92;22.17;;;;;;;12.91;nan;99033.03;2096623;28;20295;-77
2021/06/11 02:14:02;;;;;;;25.48;22.92;;;;;;;12.94;nan;99038.56;2105746;28;20232;-77
2021/06/11 02:15:04;;;;;;;26.60;23.30;;;;;;;12.92;nan;99030.03;2106607;28;20221;-77
2021/06/11 02:16:05;;;;;;;36.15;22.40;;;;;;;12.92;nan;99104.22;2098988;28;20236;-77
2021/06/11 02:17:07;;;;;;;23.87;21.37;;;;;;;;;;2097634;28;20719;-77
2021/06/11 02:18:08;;;;;;;24.23;21.45;;;;;;;12.89;nan;99036.03;2104177;28;20221;-77
2021/06/11 02:19:10;;;;;;;24.77;21.23;;;;;;;12.88;nan;99023.72;2106251;28;20677;-77
2021/06/11 02:20:13;;;;;;;24.23;21.73;;;;;;;12.90;nan;99026.88;2106591;28;20221;-77
2021/06/11 02:21:15;;;;;;;22.65;20.63;;;;;;;12.91;nan;99033.81;2105703;28;20229;-77
2021/06/11 02:22:15;;;;;;;25.50;21.25;;;;;;;;;;2097211;28;20218;-77
2021/06/11 02:23:17;;;;;;;27.10;21.43;;;;;;;12.90;nan;99015.38;2097266;28;20652;-77
2021/06/11 02:24:19;;;;;;;22.45;20.13;;;;;;;12.92;nan;99030.03;2097304;28;20526;-77
2021/06/11 02:25:22;;;;;;;23.13;20.75;;;;;;;12.93;nan;99026.25;2105885;28;20727;-78
2021/06/11 02:26:23;;;;;;;24.58;20.77;;;;;;;12.90;nan;99021.53;2105932;28;20232;-77
2021/06/11 02:27:25;;;;;;;25.75;21.80;;;;;;;12.87;nan;99006.09;2106284;28;20228;-78
2021/06/11 02:28:27;;;;;;;25.85;20.88;;;;;;;12.86;nan;99020.59;2105312;28;20229;-77
2021/06/11 02:29:29;;;;;;;23.75;20.80;;;;;;;12.86;nan;99090.19;2105842;28;20256;-77
2021/06/11 02:30:30;;;;;;;25.35;21.67;;;;;;;12.88;nan;99018.38;2105534;28;20217;-78
2021/06/11 02:31:33;;;;;;;25.93;21.77;;;;;;;12.87;nan;99032.88;2105806;28;20225;-77
2021/06/11 02:32:34;;;;;;;24.20;21.63;;;;;;;12.84;nan;99016.63;2105477;28;20300;-77
2021/06/11 02:33:36;;;;;;;23.48;21.05;;;;;;;;;;2105650;28;20687;-77
2021/06/11 02:34:37;;;;;;;24.70;21.60;;;;;;;12.87;nan;99027.50;2103593;28;20252;-77
2021/06/11 02:35:38;;;;;;;23.90;21.37;;;;;;;12.87;nan;99105.16;2103341;28;20225;-76
2021/06/11 02:36:39;;;;;;;23.70;21.05;;;;;;;12.87;nan;99027.50;2106446;28;20225;-76
2021/06/11 02:37:40;;;;;;;24.03;21.53;;;;;;;12.85;nan;99034.25;2105687;28;20305;-77
2021/06/11 02:38:41;;;;;;;23.73;21.13;;;;;;;12.83;nan;99025.75;2105796;28;20690;-78
2021/06/11 02:39:42;;;;;;;24.67;21.47;;;;;;;12.87;nan;99038.22;2098643;28;20226;-77
2021/06/11 02:40:43;;;;;;;23.75;21.27;;;;;;;12.88;nan;99033.66;2089006;28;20264;-78
2021/06/11 02:41:49;;;;;;;23.90;21.60;;;;;;;12.85;nan;99029.69;2102343;28;20245;-77
2021/06/11 02:42:53;;;;;;;23.98;21.48;;;;;;;12.85;nan;99018.97;2106275;28;20617;-78
2021/06/11 02:43:56;;;;;;;27.70;21.60;;;;;;;12.84;nan;99032.69;2105156;28;20239;-78
2021/06/11 02:45:01;;;;;;;23.65;21.08;;;;;;;;;;2097037;28;20213;-77
2021/06/11 02:46:06;;;;;;;26.23;21.27;;;;;;;12.90;nan;99036.81;2097649;28;20252;-77
2021/06/11 02:47:12;;;;;;;27.05;20.05;;;;;;;12.87;nan;99026.72;2097702;28;20760;-77
2021/06/11 02:48:18;;;;;;;24.23;20.83;;;;;;;12.87;nan;99097.13;2107152;28;20225;-77
2021/06/11 02:49:20;;;;;;;23.23;20.70;;;;;;;;;;2103951;28;20217;-77
2021/06/11 02:50:24;;;;;;;22.83;20.38;;;;;;;12.91;nan;99028.47;2095169;28;20305;-78
2021/06/11 02:51:29;;;;;;;24.27;21.70;;;;;;;12.90;nan;99032.25;2105293;28;20228;-77
2021/06/11 02:52:33;;;;;;;25.80;21.20;;;;;;;12.92;nan;99030.03;2106313;28;20675;-77
2021/06/11 02:53:35;;;;;;;23.63;21.10;;;;;;;12.91;nan;99044.53;2106361;28;20217;-77
2021/06/11 02:54:39;;;;;;;24.65;21.77;;;;;;;12.92;nan;99099.66;2106079;28;20699;-77
2021/06/11 02:55:40;;;;;;;23.27;20.80;;;;;;;13.00;nan;99042.66;2105892;28;20217;-76
2021/06/11 02:56:44;;;;;;;23.45;21.02;;;;;;;12.98;nan;99034.16;2105111;28;20228;-77
2021/06/11 02:57:47;;;;;;;23.88;21.42;;;;;;;12.93;nan;99026.25;2095037;28;20221;-77
2021/06/11 02:58:51;;;;;;;24.30;21.50;;;;;;;12.96;nan;99041.72;2104940;28;20689;-78
2021/06/11 02:59:56;;;;;;;23.40;21.00;;;;;;;12.96;nan;99095.28;2103021;28;20225;-78
2021/06/11 03:00:58;;;;;;;23.65;21.25;;;;;;;12.99;nan;99024.22;2105190;28;20249;-77
2021/06/11 03:02:02;;;;;;;24.80;21.90;;;;;;;12.99;nan;99024.22;2097729;28;20214;-78
2021/06/11 03:03:08;;;;;;;22.85;20.42;;;;;;;13.05;nan;99103.34;2105706;28;20633;-77
2021/06/11 03:04:10;;;;;;;23.63;21.15;;;;;;;13.05;nan;99075.75;2104451;28;20221;-78
2021/06/11 03:05:12;;;;;;;25.40;21.70;;;;;;;13.07;nan;99030.69;2105394;28;20708;-78
2021/06/11 03:06:13;;;;;;;26.33;21.83;;;;;;;13.08;nan;99091.19;2106268;28;20228;-77
2021/06/11 03:07:17;;;;;;;23.70;21.10;;;;;;;13.07;nan;99079.69;2106214;28;20267;-78
2021/06/11 03:08:22;;;;;;;23.58;21.15;;;;;;;13.09;nan;99082.06;2105257;28;20764;-78
2021/06/11 03:09:26;;;;;;;28.92;21.77;;;;;;;13.12;nan;99017.13;2105192;28;20228;-76
2021/06/11 03:10:29;;;;;;;24.65;21.05;;;;;;;13.14;nan;99025.69;2098382;28;20233;-78
2021/06/11 03:11:37;;;;;;;26.23;22.00;;;;;;;;;;2088977;28;20229;-78
2021/06/11 03:12:38;;;;;;;27.08;21.02;;;;;;;13.21;nan;99015.31;2101137;28;20222;-77
2021/06/11 03:13:42;;;;;;;25.90;21.80;;;;;;;13.15;nan;98989.75;2104636;28;20240;-77
2021/06/11 03:14:43;;;;;;;29.55;21.48;;;;;;;;;;2105561;28;20358;-79
2021/06/11 03:15:46;;;;;;;22.40;20.27;;;;;;;22.40;100.00;57729.84;2106147;28;20221;-78
2021/06/11 03:16:49;;;;;;;28.05;20.80;;;;;;;13.26;nan;99017.81;2097584;28;20264;-78
2021/06/11 03:17:53;;;;;;;25.58;20.58;;;;;;;13.26;nan;98938.22;2105013;28;20308;-78
2021/06/11 03:18:55;;;;;;;22.88;20.45;;;;;;;13.26;nan;99018.59;2114700;27;20246;-78
2021/06/11 03:19:59;;;;;;;23.55;21.17;;;;;;;;;;2096813;28;20592;-77
2021/06/11 03:21:05;;;;;;;23.25;20.85;;;;;;;13.29;nan;99012.66;2096994;28;20221;-77
2021/06/11 03:22:08;;;;;;;22.60;20.30;;;;;;;;;;2096800;28;20282;-78
2021/06/11 03:23:11;;;;;;;25.52;21.13;;;;;;;13.23;nan;99003.19;2098875;28;20761;-78
2021/06/11 03:24:19;;;;;;;26.42;20.98;;;;;;;13.33;nan;99028.09;2104964;28;20225;-78
2021/06/11 03:25:22;;;;;;;24.92;21.67;;;;;;;13.36;nan;99016.72;2105339;28;20228;-78
2021/06/11 03:26:28;;;;;;;28.02;21.58;;;;;;;13.36;nan;99103.25;2105668;28;20225;-76
2021/06/11 03:27:32;;;;;;;22.60;20.38;;;;;;;13.36;nan;98996.06;2105057;28;20280;-78
2021/06/11 03:28:38;;;;;;;23.45;20.63;;;;;;;13.41;nan;99035.34;2105354;28;20726;-78
2021/06/11 03:29:42;;;;;;;25.80;21.05;;;;;;;13.41;nan;99020.03;2104686;28;20715;-77
2021/06/11 03:30:48;;;;;;;23.00;20.30;;;;;;;13.43;nan;99017.81;2105364;28;20640;-78
2021/06/11 03:31:51;;;;;;;24.52;20.83;;;;;;;;;;2106023;28;20300;-78
2021/06/11 03:32:54;;;;;;;22.98;20.67;;;;;;;;;;2105903;28;20723;-78
2021/06/11 03:33:56;;;;;;;24.58;21.75;;;;;;;;;;2105552;28;20220;-78
2021/06/11 03:35:02;;;;;;;22.75;20.38;;;;;;;13.42;nan;99020.84;2105209;28;20707;-78
2021/06/11 03:36:12;;;;;;;23.67;20.60;;;;;;;13.40;nan;99088.16;2105369;28;20696;-78
2021/06/11 03:37:15;;;;;;;25.63;21.00;;;;;;;13.43;nan;99023.19;2104626;28;20222;-78
2021/06/11 03:38:19;;;;;;;25.00;21.30;;;;;;;13.46;nan;99027.13;2096770;28;20255;-78
2021/06/11 03:39:23;;;;;;;23.23;20.73;;;;;;;13.45;nan;99020.97;2105240;28;20221;-78
2021/06/11 03:40:25;;;;;;;24.65;20.90;;;;;;;;;;2105565;28;20225;-76
2021/06/11 03:41:26;;;;;;;24.33;20.38;;;;;;;13.39;nan;99160.81;2105133;28;20224;-77
2021/06/11 03:42:29;;;;;;;25.08;22.40;;;;;;;13.40;nan;99088.16;2104937;28;20271;-77
2021/06/11 03:43:31;;;;;;;24.45;21.95;;;;;;;13.37;nan;99094.13;2105858;28;20232;-78
2021/06/11 03:44:32;;;;;;;24.38;21.45;;;;;;;13.36;nan;99022.88;2104928;28;20224;-78
2021/06/11 03:45:33;;;;;;;25.00;21.33;;;;;;;13.36;nan;99097.91;2096746;28;20230;-77
2021/06/11 03:46:38;;;;;;;24.47;21.63;;;;;;;13.40;nan;99023.03;2096418;28;20229;-78
2021/06/11 03:47:39;;;;;;;24.92;21.40;;;;;;;;;;2104795;28;20459;-77
2021/06/11 03:48:43;;;;;;;24.92;22.02;;;;;;;13.37;nan;99007.56;2105028;28;20584;-78
2021/06/11 03:49:45;;;;;;;23.65;21.20;;;;;;;13.35;nan;99090.97;2096302;28;20221;-78
2021/06/11 03:50:48;;;;;;;25.55;21.05;;;;;;;;;;2105157;28;20221;-78
2021/06/11 03:51:51;;;;;;;24.33;21.10;;;;;;;13.38;nan;99020.69;2105005;28;20703;-78
2021/06/11 03:52:54;;;;;;;23.90;21.45;;;;;;;;;;2104885;28;20221;-77
2021/06/11 03:53:56;;;;;;;23.80;21.08;;;;;;;13.36;nan;99016.72;2104916;28;20672;-77
2021/06/11 03:55:01;;;;;;;29.20;21.02;;;;;;;;;;2105806;28;20229;-77
2021/06/11 03:56:06;;;;;;;22.70;20.33;;;;;;;13.32;nan;99102.31;2105772;28;20213;-78
2021/06/11 03:57:08;;;;;;;23.25;20.85;;;;;;;13.34;nan;99019.72;2105765;28;20229;-78
2021/06/11 03:58:11;;;;;;;23.95;21.25;;;;;;;;;;2104471;28;20248;-78
2021/06/11 03:59:13;;;;;;;25.00;20.85;;;;;;;;;;2096210;28;20236;-78
2021/06/11 04:00:15;;;;;;;24.05;21.13;;;;;;;13.38;nan;99026.03;2105156;28;20225;-78
2021/06/11 04:01:20;;;;;;;26.88;21.45;;;;;;;13.39;nan;99022.25;2105914;28;20622;-78
2021/06/11 04:02:22;;;;;;;24.10;20.33;;;;;;;13.37;nan;99029.00;2105657;28;20225;-77
2021/06/11 04:03:23;;;;;;;23.75;21.25;;;;;;;13.39;nan;98946.44;2095883;28;20225;-77
2021/06/11 04:04:24;;;;;;;26.67;21.33;;;;;;;13.41;nan;99019.25;2096648;28;20226;-77
2021/06/11 04:05:25;;;;;;;24.37;21.20;;;;;;;13.42;nan;99016.25;2097264;28;20348;-77
2021/06/11 04:06:30;;;;;;;24.80;20.98;;;;;;;13.38;nan;99009.97;2095974;28;20225;-77
2021/06/11 04:07:34;;;;;;;23.60;20.92;;;;;;;;;;2088594;28;20227;-77
2021/06/11 04:08:35;;;;;;;23.67;20.95;;;;;;;13.39;nan;99022.25;2096701;28;20300;-77
2021/06/11 04:09:43;;;;;;;25.63;21.70;;;;;;;13.39;nan;99022.25;2097442;28;20225;-78
2021/06/11 04:10:49;;;;;;;25.38;21.65;;;;;;;13.42;nan;99026.19;2096859;28;20763;-77
2021/06/11 04:11:56;;;;;;;23.23;20.92;;;;;;;13.41;nan;99014.69;2096525;28;20218;-77
2021/06/11 04:13:00;;;;;;;23.38;20.85;;;;;;;13.41;nan;99003.97;2096286;28;20361;-77
2021/06/11 04:14:02;;;;;;;28.25;21.40;;;;;;;13.43;nan;98953.50;2097275;28;20356;-78
2021/06/11 04:15:05;;;;;;;23.83;21.42;;;;;;;13.46;nan;99011.03;2096093;28;20229;-77
2021/06/11 04:16:07;;;;;;;26.40;21.75;;;;;;;;;;2096666;28;20287;-77
2021/06/11 04:17:10;;;;;;;24.95;22.45;;;;;;;;;;2097008;28;20228;-76
2021/06/11 04:18:14;;;;;;;25.85;21.08;;;;;;;13.51;nan;99025.09;2097221;28;20222;-77
2021/06/11 04:19:18;;;;;;;26.77;21.67;;;;;;;13.54;nan;99029.00;2095998;28;20255;-78
2021/06/11 04:20:21;;;;;;;24.45;21.88;;;;;;;13.57;nan;99017.69;2088541;28;20639;-77
2021/06/11 04:21:24;;;;;;;29.95;22.00;;;;;;;13.59;nan;99026.19;2096567;28;20226;-78
2021/06/11 04:22:27;;;;;;;27.98;22.58;;;;;;;13.65;nan;99035.66;2096786;28;20229;-77
2021/06/11 04:23:33;;;;;;;23.83;21.55;;;;;;;13.69;nan;99036.59;2097178;28;20234;-77
2021/06/11 04:24:38;;;;;;;25.67;21.70;;;;;;;13.72;nan;99035.16;2097244;28;20272;-77
2021/06/11 04:25:39;;;;;;;24.30;21.77;;;;;;;13.69;nan;99030.44;2096769;28;20226;-77
2021/06/11 04:26:40;;;;;;;24.48;22.13;;;;;;;13.71;nan;99022.84;2097161;28;20228;-76
2021/06/11 04:27:42;;;;;;;26.33;22.23;;;;;;;13.65;nan;99104.56;2097220;28;20228;-77
2021/06/11 04:28:44;;;;;;;26.63;22.13;;;;;;;13.68;nan;99012.78;2096310;28;20226;-78
2021/06/11 04:29:46;;;;;;;26.90;23.02;;;;;;;13.79;nan;98987.19;2096516;28;20218;-77
2021/06/11 04:30:47;;;;;;;25.33;22.55;;;;;;;;;;2097249;28;20593;-77
2021/06/11 04:31:50;;;;;;;24.42;21.83;;;;;;;13.77;nan;99022.38;2096577;28;20222;-77
2021/06/11 04:32:52;;;;;;;25.13;22.45;;;;;;;13.77;nan;99096.69;2088403;28;20223;-77
2021/06/11 04:33:54;;;;;;;26.02;21.80;;;;;;;13.80;nan;99096.03;2104509;28;20729;-76
2021/06/11 04:34:56;;;;;;;24.58;22.00;;;;;;;13.85;nan;99034.22;2105450;28;20228;-77
2021/06/11 04:35:57;;;;;;;23.90;21.45;;;;;;;13.89;nan;99029.78;2105512;28;20695;-77
2021/06/11 04:36:58;;;;;;;24.50;22.05;;;;;;;13.91;nan;99032.16;2105521;28;20232;-78
2021/06/11 04:37:59;;;;;;;25.98;22.73;;;;;;;;;;2104681;28;20225;-77
2021/06/11 04:39:04;;;;;;;26.17;22.00;;;;;;;13.99;nan;99029.47;2104625;28;20217;-78
2021/06/11 04:40:06;;;;;;;24.80;22.27;;;;;;;14.01;nan;99037.97;2105490;28;20228;-78
2021/06/11 04:41:10;;;;;;;25.10;22.50;;;;;;;13.99;nan;99013.38;2105461;28;20221;-78
2021/06/11 04:42:11;;;;;;;25.20;22.58;;;;;;;14.09;nan;99034.47;2104100;28;20221;-77
2021/06/11 04:43:12;;;;;;;28.60;23.17;;;;;;;14.09;nan;99039.84;2104692;28;20221;-77
2021/06/11 04:44:13;;;;;;;26.50;23.67;;;;;;;14.10;nan;99030.69;2105376;28;20621;-77
2021/06/11 04:45:15;;;;;;;25.17;22.53;;;;;;;14.12;nan;99108.19;2105366;28;20228;-77
2021/06/11 04:46:16;;;;;;;29.60;22.75;;;;;;;14.21;nan;99041.84;2105392;28;20602;-77
2021/06/11 04:47:17;;;;;;;25.50;22.73;;;;;;;14.23;nan;99119.34;2105418;28;20308;-77
2021/06/11 04:48:18;;;;;;;34.08;22.92;;;;;;;;;;2105422;28;20228;-77
2021/06/11 04:49:20;;;;;;;24.90;22.50;;;;;;;14.28;nan;99052.09;2104253;28;20288;-77
2021/06/11 04:50:21;;;;;;;24.50;21.58;;;;;;;14.31;nan;99036.16;2104932;28;20225;-77
2021/06/11 04:51:23;;;;;;;28.23;22.57;;;;;;;;;;2104495;28;20237;-78
2021/06/11 04:52:23;;;;;;;25.00;20.88;;;;;;;14.37;nan;99034.09;2104340;28;20221;-77
2021/06/11 04:53:24;;;;;;;25.57;22.13;;;;;;;14.42;nan;99036.56;2105407;28;20232;-77
2021/06/11 04:54:25;;;;;;;25.58;21.98;;;;;;;14.43;nan;99044.31;2104514;28;20233;-77
2021/06/11 04:55:27;;;;;;;23.33;21.03;;;;;;;14.47;nan;99044.50;2095807;28;20229;-79
2021/06/11 04:56:27;;;;;;;22.98;20.70;;;;;;;14.45;nan;99041.34;2096253;28;20237;-78
2021/06/11 04:57:29;;;;;;;24.13;21.60;;;;;;;14.54;nan;99044.78;2104717;28;20300;-79
2021/06/11 04:58:30;;;;;;;25.98;21.30;;;;;;;14.56;nan;99037.19;2105297;28;20250;-78
2021/06/11 04:59:31;;;;;;;24.38;21.88;;;;;;;;;;2105227;28;20225;-77
2021/06/11 05:00:32;;;;;;;37.13;23.38;;;;;;;14.64;nan;99054.38;2105316;28;20225;-78
2021/06/11 05:01:33;;;;;;;24.63;21.97;;;;;;;14.66;nan;99042.19;2105349;28;20225;-77
2021/06/11 05:02:34;;;;;;;24.60;21.42;;;;;;;14.71;nan;99038.56;2104124;28;20224;-78